Miramar Beach, Florida
Current Conditions -  °F | °C
As of 9:53 AM on Saturday 20 Dec 2014 (Local Time) from KDTS Reporting Station
Moderate Rain Moderate Rain  
Wind Chill: 51°   Ceiling: 3800
Heat Index: 51°   Visibility: 2.5mi
Dew Point: 49°   Wind: 8mph
Humidity: 92%   Direction: 30°NNE
Pressure: 30.15"   Gusts: NA
Location:  30.3738°N, 86.3602°W
Report Text: KDTS 201553Z AUTO 03007KT 2 1/2SM RA BR FEW005 OVC038 11/09 A3015 RMK AO2 SLP209 P0002 T01060094 TSNO
Loading
Personal Weather Stations






























Interactive Weather Map New forecast layout! Learn more

10-Day Weather Forecast

Advertisements
Track Severe Weather on mobile